sensor_id;sensor_type;location;lat;lon;timestamp;pressure;altitude;pressure_sealevel;temperature;humidity
70027;BME280;57506;50.092;15.804;2024-02-04T00:00:47;99480.91;;;8.09;100.00
70027;BME280;57506;50.092;15.804;2024-02-04T00:03:13;99484.06;;;8.13;100.00
70027;BME280;57506;50.092;15.804;2024-02-04T00:05:38;99481.38;;;8.13;100.00
70027;BME280;57506;50.092;15.804;2024-02-04T00:08:04;99470.50;;;8.06;100.00
70027;BME280;57506;50.092;15.804;2024-02-04T00:10:30;99469.00;;;8.03;100.00
70027;BME280;57506;50.092;15.804;2024-02-04T00:12:55;99477.22;;;8.10;100.00
70027;BME280;57506;50.092;15.804;2024-02-04T00:15:21;99478.56;;;8.06;100.00
70027;BME280;57506;50.092;15.804;2024-02-04T00:17:47;99470.63;;;8.13;100.00
70027;BME280;57506;50.092;15.804;2024-02-04T00:20:13;99477.34;;;8.25;100.00
70027;BME280;57506;50.092;15.804;2024-02-04T00:22:38;99458.88;;;8.14;100.00
70027;BME280;57506;50.092;15.804;2024-02-04T00:25:04;99463.28;;;8.06;100.00
70027;BME280;57506;50.092;15.804;2024-02-04T00:27:33;99463.91;;;8.17;100.00
70027;BME280;57506;50.092;15.804;2024-02-04T00:29:59;99460.94;;;8.12;100.00
70027;BME280;57506;50.092;15.804;2024-02-04T00:32:25;99452.03;;;8.11;100.00
70027;BME280;57506;50.092;15.804;2024-02-04T00:34:52;99463.56;;;8.20;100.00
70027;BME280;57506;50.092;15.804;2024-02-04T00:37:17;99454.00;;;8.17;100.00
70027;BME280;57506;50.092;15.804;2024-02-04T00:39:43;99443.78;;;8.13;100.00
70027;BME280;57506;50.092;15.804;2024-02-04T00:42:08;99464.75;;;8.25;100.00
70027;BME280;57506;50.092;15.804;2024-02-04T00:44:34;99456.69;;;8.25;100.00
70027;BME280;57506;50.092;15.804;2024-02-04T00:47:00;99463.06;;;8.40;100.00
70027;BME280;57506;50.092;15.804;2024-02-04T00:49:25;99448.97;;;8.22;100.00
70027;BME280;57506;50.092;15.804;2024-02-04T00:51:52;99462.38;;;8.30;100.00
70027;BME280;57506;50.092;15.804;2024-02-04T00:54:18;99469.25;;;8.41;100.00
70027;BME280;57506;50.092;15.804;2024-02-04T00:56:43;99476.59;;;8.47;100.00
70027;BME280;57506;50.092;15.804;2024-02-04T00:59:09;99471.78;;;8.43;100.00
70027;BME280;57506;50.092;15.804;2024-02-04T01:01:35;99476.41;;;8.57;100.00
70027;BME280;57506;50.092;15.804;2024-02-04T01:04:00;99480.94;;;8.56;100.00
70027;BME280;57506;50.092;15.804;2024-02-04T01:06:27;99483.13;;;8.53;100.00
70027;BME280;57506;50.092;15.804;2024-02-04T01:08:55;99484.84;;;8.46;100.00
70027;BME280;57506;50.092;15.804;2024-02-04T01:11:21;99464.56;;;8.27;100.00
70027;BME280;57506;50.092;15.804;2024-02-04T01:13:47;99495.78;;;8.36;100.00
70027;BME280;57506;50.092;15.804;2024-02-04T01:16:12;99493.09;;;8.28;100.00
70027;BME280;57506;50.092;15.804;2024-02-04T01:18:38;99492.94;;;8.21;100.00
70027;BME280;57506;50.092;15.804;2024-02-04T01:21:04;99480.22;;;8.07;100.00
70027;BME280;57506;50.092;15.804;2024-02-04T01:23:29;99452.41;;;7.84;100.00
70027;BME280;57506;50.092;15.804;2024-02-04T01:25:55;99475.56;;;7.93;100.00
70027;BME280;57506;50.092;15.804;2024-02-04T01:28:20;99465.50;;;7.79;100.00
70027;BME280;57506;50.092;15.804;2024-02-04T01:30:46;99469.69;;;7.81;100.00
70027;BME280;57506;50.092;15.804;2024-02-04T01:33:12;99464.81;;;7.85;100.00
70027;BME280;57506;50.092;15.804;2024-02-04T01:35:37;99441.53;;;7.77;100.00
70027;BME280;57506;50.092;15.804;2024-02-04T01:38:03;99444.38;;;7.76;100.00
70027;BME280;57506;50.092;15.804;2024-02-04T01:40:29;99437.16;;;7.68;100.00
70027;BME280;57506;50.092;15.804;2024-02-04T01:42:54;99457.94;;;7.90;100.00
70027;BME280;57506;50.092;15.804;2024-02-04T01:45:21;99453.91;;;7.94;100.00
70027;BME280;57506;50.092;15.804;2024-02-04T01:47:47;99443.19;;;7.94;100.00
70027;BME280;57506;50.092;15.804;2024-02-04T01:50:13;99409.97;;;7.87;100.00
70027;BME280;57506;50.092;15.804;2024-02-04T01:52:40;99454.56;;;8.04;100.00
70027;BME280;57506;50.092;15.804;2024-02-04T01:55:08;99430.75;;;8.01;100.00
70027;BME280;57506;50.092;15.804;2024-02-04T01:57:34;99432.41;;;8.11;100.00
70027;BME280;57506;50.092;15.804;2024-02-04T02:00:00;99425.38;;;8.10;100.00
70027;BME280;57506;50.092;15.804;2024-02-04T02:02:26;99410.09;;;8.10;100.00
70027;BME280;57506;50.092;15.804;2024-02-04T02:04:52;99413.59;;;8.19;100.00
70027;BME280;57506;50.092;15.804;2024-02-04T02:07:18;99423.63;;;8.25;100.00
70027;BME280;57506;50.092;15.804;2024-02-04T02:09:46;99423.63;;;8.25;100.00
70027;BME280;57506;50.092;15.804;2024-02-04T02:12:16;99428.84;;;8.26;100.00
70027;BME280;57506;50.092;15.804;2024-02-04T02:14:53;99424.66;;;8.24;100.00
70027;BME280;57506;50.092;15.804;2024-02-04T02:17:37;99404.06;;;8.08;100.00
70027;BME280;57506;50.092;15.804;2024-02-04T02:23:07;99432.81;;;8.30;100.00
70027;BME280;57506;50.092;15.804;2024-02-04T02:25:35;99438.72;;;8.34;100.00
70027;BME280;57506;50.092;15.804;2024-02-04T02:28:01;99406.41;;;8.11;100.00
70027;BME280;57506;50.092;15.804;2024-02-04T02:30:27;99435.34;;;8.40;100.00
70027;BME280;57506;50.092;15.804;2024-02-04T02:32:53;99400.16;;;8.19;100.00
70027;BME280;57506;50.092;15.804;2024-02-04T02:35:18;99439.41;;;8.36;100.00
70027;BME280;57506;50.092;15.804;2024-02-04T02:37:59;99434.69;;;8.38;100.00
70027;BME280;57506;50.092;15.804;2024-02-04T02:40:45;99440.72;;;8.40;100.00
70027;BME280;57506;50.092;15.804;2024-02-04T02:43:11;99443.41;;;8.40;100.00
70027;BME280;57506;50.092;15.804;2024-02-04T02:45:42;99429.31;;;8.38;100.00
70027;BME280;57506;50.092;15.804;2024-02-04T02:48:08;99393.63;;;8.13;100.00
70027;BME280;57506;50.092;15.804;2024-02-04T02:50:35;99350.13;;;7.87;100.00
70027;BME280;57506;50.092;15.804;2024-02-04T02:53:01;99415.25;;;8.20;100.00
70027;BME280;57506;50.092;15.804;2024-02-04T02:55:27;99407.94;;;8.05;100.00
70027;BME280;57506;50.092;15.804;2024-02-04T02:57:52;99393.00;;;8.03;100.00
70027;BME280;57506;50.092;15.804;2024-02-04T03:00:18;99424.00;;;8.14;100.00
70027;BME280;57506;50.092;15.804;2024-02-04T03:02:44;99412.13;;;8.08;100.00
70027;BME280;57506;50.092;15.804;2024-02-04T03:05:09;99397.38;;;7.96;100.00
70027;BME280;57506;50.092;15.804;2024-02-04T03:07:35;99409.28;;;8.01;100.00
70027;BME280;57506;50.092;15.804;2024-02-04T03:10:01;99423.03;;;7.98;100.00
70027;BME280;57506;50.092;15.804;2024-02-04T03:12:26;99430.56;;;8.03;100.00
70027;BME280;57506;50.092;15.804;2024-02-04T03:14:52;99422.91;;;7.92;100.00
70027;BME280;57506;50.092;15.804;2024-02-04T03:17:17;99404.09;;;7.92;100.00
70027;BME280;57506;50.092;15.804;2024-02-04T03:19:47;99420.50;;;7.97;100.00
70027;BME280;57506;50.092;15.804;2024-02-04T03:22:13;99403.44;;;7.90;100.00
70027;BME280;57506;50.092;15.804;2024-02-04T03:24:38;99403.28;;;7.83;100.00
70027;BME280;57506;50.092;15.804;2024-02-04T03:27:04;99396.22;;;7.82;100.00
70027;BME280;57506;50.092;15.804;2024-02-04T03:29:30;99432.63;;;7.93;100.00
70027;BME280;57506;50.092;15.804;2024-02-04T03:31:55;99430.44;;;7.88;100.00
70027;BME280;57506;50.092;15.804;2024-02-04T03:34:21;99424.75;;;7.83;100.00
70027;BME280;57506;50.092;15.804;2024-02-04T03:36:47;99417.56;;;7.76;100.00
70027;BME280;57506;50.092;15.804;2024-02-04T03:39:13;99419.56;;;7.73;100.00
70027;BME280;57506;50.092;15.804;2024-02-04T03:41:38;99430.44;;;7.80;100.00
70027;BME280;57506;50.092;15.804;2024-02-04T03:44:06;99415.22;;;7.72;100.00
70027;BME280;57506;50.092;15.804;2024-02-04T03:46:32;99412.03;;;7.69;100.00
70027;BME280;57506;50.092;15.804;2024-02-04T03:48:58;99412.72;;;7.63;100.00
70027;BME280;57506;50.092;15.804;2024-02-04T03:51:23;99413.53;;;7.63;100.00
70027;BME280;57506;50.092;15.804;2024-02-04T03:53:50;99403.00;;;7.62;100.00
70027;BME280;57506;50.092;15.804;2024-02-04T03:56:16;99379.06;;;7.44;100.00
70027;BME280;57506;50.092;15.804;2024-02-04T03:58:42;99398.31;;;7.56;100.00
70027;BME280;57506;50.092;15.804;2024-02-04T04:01:12;99420.09;;;7.61;100.00
70027;BME280;57506;50.092;15.804;2024-02-04T04:03:44;99412.03;;;7.53;100.00
70027;BME280;57506;50.092;15.804;2024-02-04T04:06:09;99421.09;;;7.52;100.00
70027;BME280;57506;50.092;15.804;2024-02-04T04:08:36;99417.25;;;7.46;100.00
70027;BME280;57506;50.092;15.804;2024-02-04T04:11:01;99388.28;;;7.25;100.00
70027;BME280;57506;50.092;15.804;2024-02-04T04:13:27;99433.81;;;7.50;100.00
70027;BME280;57506;50.092;15.804;2024-02-04T04:15:54;99414.56;;;7.38;100.00
70027;BME280;57506;50.092;15.804;2024-02-04T04:18:19;99432.69;;;7.44;100.00
70027;BME280;57506;50.092;15.804;2024-02-04T04:20:45;99422.44;;;7.40;100.00
70027;BME280;57506;50.092;15.804;2024-02-04T04:23:12;99375.38;;;7.21;100.00
70027;BME280;57506;50.092;15.804;2024-02-04T04:25:37;99361.47;;;7.25;100.00
70027;BME280;57506;50.092;15.804;2024-02-04T04:28:03;99406.03;;;7.26;100.00
70027;BME280;57506;50.092;15.804;2024-02-04T04:30:29;99428.13;;;7.20;100.00
70027;BME280;57506;50.092;15.804;2024-02-04T04:32:54;99427.78;;;7.07;100.00
70027;BME280;57506;50.092;15.804;2024-02-04T04:35:20;99420.41;;;7.17;100.00
70027;BME280;57506;50.092;15.804;2024-02-04T04:37:45;99401.50;;;7.11;100.00
70027;BME280;57506;50.092;15.804;2024-02-04T04:40:11;99422.09;;;7.18;100.00
70027;BME280;57506;50.092;15.804;2024-02-04T04:42:37;99424.78;;;7.18;100.00
70027;BME280;57506;50.092;15.804;2024-02-04T04:45:03;99401.50;;;7.11;100.00
70027;BME280;57506;50.092;15.804;2024-02-04T04:47:29;99389.78;;;7.12;100.00
70027;BME280;57506;50.092;15.804;2024-02-04T04:49:54;99397.66;;;7.21;100.00
70027;BME280;57506;50.092;15.804;2024-02-04T04:52:20;99372.34;;;7.16;100.00
70027;BME280;57506;50.092;15.804;2024-02-04T04:54:45;99376.72;;;7.25;100.00
70027;BME280;57506;50.092;15.804;2024-02-04T04:57:11;99380.22;;;7.33;100.00
70027;BME280;57506;50.092;15.804;2024-02-04T04:59:37;99356.09;;;7.25;100.00
70027;BME280;57506;50.092;15.804;2024-02-04T05:02:03;99362.47;;;7.24;100.00
70027;BME280;57506;50.092;15.804;2024-02-04T05:04:29;99354.09;;;7.19;100.00
70027;BME280;57506;50.092;15.804;2024-02-04T05:06:55;99354.09;;;7.27;100.00
70027;BME280;57506;50.092;15.804;2024-02-04T05:09:21;99344.38;;;7.26;100.00
70027;BME280;57506;50.092;15.804;2024-02-04T05:11:46;99356.94;;;7.34;100.00
70027;BME280;57506;50.092;15.804;2024-02-04T05:14:11;99360.28;;;7.44;100.00
70027;BME280;57506;50.092;15.804;2024-02-04T05:16:37;99350.88;;;7.32;100.00
70027;BME280;57506;50.092;15.804;2024-02-04T05:19:03;99342.34;;;7.36;100.00
70027;BME280;57506;50.092;15.804;2024-02-04T05:21:28;99359.59;;;7.50;100.00
70027;BME280;57506;50.092;15.804;2024-02-04T05:23:54;99341.34;;;7.37;100.00
70027;BME280;57506;50.092;15.804;2024-02-04T05:26:20;99359.59;;;7.58;100.00
70027;BME280;57506;50.092;15.804;2024-02-04T05:28:45;99343.53;;;7.42;100.00
70027;BME280;57506;50.092;15.804;2024-02-04T05:31:11;99331.47;;;7.38;100.00
70027;BME280;57506;50.092;15.804;2024-02-04T05:33:37;99364.63;;;7.53;100.00
70027;BME280;57506;50.092;15.804;2024-02-04T05:36:03;99345.00;;;7.53;100.00
70027;BME280;57506;50.092;15.804;2024-02-04T05:38:29;99323.91;;;7.42;100.00
70027;BME280;57506;50.092;15.804;2024-02-04T05:40:55;99349.19;;;7.55;100.00
70027;BME280;57506;50.092;15.804;2024-02-04T05:43:21;99352.72;;;7.56;100.00
70027;BME280;57506;50.092;15.804;2024-02-04T05:45:46;99346.34;;;7.49;100.00
70027;BME280;57506;50.092;15.804;2024-02-04T05:48:12;99338.84;;;7.44;100.00
70027;BME280;57506;50.092;15.804;2024-02-04T05:50:38;99352.91;;;7.46;100.00
70027;BME280;57506;50.092;15.804;2024-02-04T05:53:05;99373.66;;;7.52;100.00
70027;BME280;57506;50.092;15.804;2024-02-04T05:55:30;99362.47;;;7.41;100.00
70027;BME280;57506;50.092;15.804;2024-02-04T05:57:56;99372.31;;;7.48;100.00
70027;BME280;57506;50.092;15.804;2024-02-04T06:00:22;99349.03;;;7.49;100.00
70027;BME280;57506;50.092;15.804;2024-02-04T06:02:48;99368.47;;;7.59;100.00
70027;BME280;57506;50.092;15.804;2024-02-04T06:05:14;99378.53;;;7.49;100.00
70027;BME280;57506;50.092;15.804;2024-02-04T06:07:39;99354.91;;;7.36;100.00
70027;BME280;57506;50.092;15.804;2024-02-04T06:10:08;99365.47;;;7.21;100.00
70027;BME280;57506;50.092;15.804;2024-02-04T06:12:34;99373.19;;;7.16;100.00
70027;BME280;57506;50.092;15.804;2024-02-04T06:15:00;99377.22;;;7.28;100.00
70027;BME280;57506;50.092;15.804;2024-02-04T06:17:25;99356.25;;;7.16;100.00
70027;BME280;57506;50.092;15.804;2024-02-04T06:19:51;99355.78;;;7.12;100.00
70027;BME280;57506;50.092;15.804;2024-02-04T06:22:17;99381.22;;;7.32;100.00
70027;BME280;57506;50.092;15.804;2024-02-04T06:24:42;99392.28;;;7.46;100.00
70027;BME280;57506;50.092;15.804;2024-02-04T06:27:08;99391.94;;;7.41;100.00
70027;BME280;57506;50.092;15.804;2024-02-04T06:29:34;99400.34;;;7.46;100.00
70027;BME280;57506;50.092;15.804;2024-02-04T06:31:59;99393.13;;;7.46;100.00
70027;BME280;57506;50.092;15.804;2024-02-04T06:34:25;99389.25;;;7.49;100.00
70027;BME280;57506;50.092;15.804;2024-02-04T06:36:50;99397.97;;;7.51;100.00
70027;BME280;57506;50.092;15.804;2024-02-04T06:39:16;99380.22;;;7.33;100.00
70027;BME280;57506;50.092;15.804;2024-02-04T06:41:42;99407.38;;;7.47;100.00
70027;BME280;57506;50.092;15.804;2024-02-04T06:44:08;99387.56;;;7.48;100.00
70027;BME280;57506;50.092;15.804;2024-02-04T06:46:33;99390.75;;;7.59;100.00
70027;BME280;57506;50.092;15.804;2024-02-04T06:48:59;99398.63;;;7.69;100.00
70027;BME280;57506;50.092;15.804;2024-02-04T06:51:25;99384.38;;;7.68;100.00
70027;BME280;57506;50.092;15.804;2024-02-04T06:53:50;99406.63;;;7.85;100.00
70027;BME280;57506;50.092;15.804;2024-02-04T06:56:16;99390.91;;;7.74;100.00
70027;BME280;57506;50.092;15.804;2024-02-04T06:58:42;99377.81;;;7.79;100.00
70027;BME280;57506;50.092;15.804;2024-02-04T07:01:08;99378.81;;;7.78;100.00
70027;BME280;57506;50.092;15.804;2024-02-04T07:03:34;99395.22;;;7.91;100.00
70027;BME280;57506;50.092;15.804;2024-02-04T07:06:00;99394.88;;;7.94;100.00
70027;BME280;57506;50.092;15.804;2024-02-04T07:08:26;99392.84;;;7.96;100.00
70027;BME280;57506;50.092;15.804;2024-02-04T07:10:52;99396.56;;;7.95;100.00
70027;BME280;57506;50.092;15.804;2024-02-04T07:13:18;99395.34;;;7.98;100.00
70027;BME280;57506;50.092;15.804;2024-02-04T07:15:44;99396.91;;;7.92;100.00
70027;BME280;57506;50.092;15.804;2024-02-04T07:18:10;99392.72;;;7.82;100.00
70027;BME280;57506;50.092;15.804;2024-02-04T07:20:36;99391.72;;;7.83;100.00
70027;BME280;57506;50.092;15.804;2024-02-04T07:23:01;99388.84;;;7.92;100.00
70027;BME280;57506;50.092;15.804;2024-02-04T07:25:27;99386.00;;;7.94;100.00
70027;BME280;57506;50.092;15.804;2024-02-04T07:27:53;99372.41;;;7.95;100.00
70027;BME280;57506;50.092;15.804;2024-02-04T07:30:19;99371.69;;;8.01;100.00
70027;BME280;57506;50.092;15.804;2024-02-04T07:32:46;99373.38;;;8.02;100.00
70027;BME280;57506;50.092;15.804;2024-02-04T07:35:11;99379.09;;;7.99;100.00
70027;BME280;57506;50.092;15.804;2024-02-04T07:37:37;99375.56;;;7.99;100.00
70027;BME280;57506;50.092;15.804;2024-02-04T07:40:03;99378.41;;;7.97;100.00
70027;BME280;57506;50.092;15.804;2024-02-04T07:42:31;99388.78;;;8.08;100.00
70027;BME280;57506;50.092;15.804;2024-02-04T07:44:56;99378.72;;;8.11;100.00
70027;BME280;57506;50.092;15.804;2024-02-04T07:47:22;99377.56;;;8.05;100.00
70027;BME280;57506;50.092;15.804;2024-02-04T07:49:51;99385.78;;;8.12;100.00
70027;BME280;57506;50.092;15.804;2024-02-04T07:52:17;99375.31;;;8.17;100.00
70027;BME280;57506;50.092;15.804;2024-02-04T07:54:45;99375.66;;;8.22;100.00
70027;BME280;57506;50.092;15.804;2024-02-04T07:57:12;99330.78;;;7.99;100.00
70027;BME280;57506;50.092;15.804;2024-02-04T07:59:40;99372.91;;;8.30;100.00
70027;BME280;57506;50.092;15.804;2024-02-04T08:02:06;99353.16;;;8.23;100.00
70027;BME280;57506;50.092;15.804;2024-02-04T08:04:32;99341.78;;;8.13;100.00
70027;BME280;57506;50.092;15.804;2024-02-04T08:06:58;99365.41;;;8.25;100.00
70027;BME280;57506;50.092;15.804;2024-02-04T08:09:23;99350.88;;;8.12;100.00
70027;BME280;57506;50.092;15.804;2024-02-04T08:11:49;99340.31;;;8.10;100.00
70027;BME280;57506;50.092;15.804;2024-02-04T08:14:14;99365.09;;;8.12;100.00
70027;BME280;57506;50.092;15.804;2024-02-04T08:17:16;99365.31;;;8.11;100.00
70027;BME280;57506;50.092;15.804;2024-02-04T08:20:32;99361.91;;;8.17;100.00
70027;BME280;57506;50.092;15.804;2024-02-04T08:23:00;99294.81;;;7.78;100.00
70027;BME280;57506;50.092;15.804;2024-02-04T08:25:26;99289.47;;;7.78;100.00
70027;BME280;57506;50.092;15.804;2024-02-04T08:27:51;99335.56;;;8.12;100.00
70027;BME280;57506;50.092;15.804;2024-02-04T08:30:17;99286.91;;;7.84;100.00
70027;BME280;57506;50.092;15.804;2024-02-04T08:32:45;99274.31;;;7.85;100.00
70027;BME280;57506;50.092;15.804;2024-02-04T08:35:11;99296.38;;;8.03;100.00
70027;BME280;57506;50.092;15.804;2024-02-04T08:37:36;99313.25;;;8.20;100.00
70027;BME280;57506;50.092;15.804;2024-02-04T08:40:05;99297.38;;;8.10;100.00
70027;BME280;57506;50.092;15.804;2024-02-04T08:42:31;99333.00;;;8.35;100.00
70027;BME280;57506;50.092;15.804;2024-02-04T08:44:56;99343.22;;;8.31;100.00
70027;BME280;57506;50.092;15.804;2024-02-04T08:47:22;99279.63;;;8.01;100.00
70027;BME280;57506;50.092;15.804;2024-02-04T08:49:48;99305.88;;;8.14;100.00
70027;BME280;57506;50.092;15.804;2024-02-04T08:52:13;99279.44;;;8.02;100.00
70027;BME280;57506;50.092;15.804;2024-02-04T08:54:39;99296.44;;;8.26;100.00
70027;BME280;57506;50.092;15.804;2024-02-04T08:57:05;99300.19;;;8.48;100.00
70027;BME280;57506;50.092;15.804;2024-02-04T08:59:30;99286.72;;;8.56;100.00
70027;BME280;57506;50.092;15.804;2024-02-04T09:01:56;99312.72;;;8.78;100.00
70027;BME280;57506;50.092;15.804;2024-02-04T09:04:21;99326.69;;;8.96;100.00
70027;BME280;57506;50.092;15.804;2024-02-04T09:06:47;99336.56;;;9.04;100.00
70027;BME280;57506;50.092;15.804;2024-02-04T09:09:12;99327.03;;;9.16;100.00
70027;BME280;57506;50.092;15.804;2024-02-04T09:11:38;99325.53;;;9.36;100.00
70027;BME280;57506;50.092;15.804;2024-02-04T09:14:05;99293.97;;;9.30;100.00
70027;BME280;57506;50.092;15.804;2024-02-04T09:16:38;99258.81;;;9.17;100.00
70027;BME280;57506;50.092;15.804;2024-02-04T09:19:04;99247.22;;;9.17;100.00
70027;BME280;57506;50.092;15.804;2024-02-04T09:21:30;99267.38;;;9.35;100.00
70027;BME280;57506;50.092;15.804;2024-02-04T09:23:55;99287.31;;;9.70;100.00
70027;BME280;57506;50.092;15.804;2024-02-04T09:26:22;99262.94;;;9.57;100.00
70027;BME280;57506;50.092;15.804;2024-02-04T09:28:48;99322.19;;;9.93;100.00
70027;BME280;57506;50.092;15.804;2024-02-04T09:31:14;99327.78;;;9.92;100.00
70027;BME280;57506;50.092;15.804;2024-02-04T09:33:39;99277.00;;;9.59;100.00
70027;BME280;57506;50.092;15.804;2024-02-04T09:36:06;99306.81;;;9.58;100.00
70027;BME280;57506;50.092;15.804;2024-02-04T09:38:31;99300.69;;;9.64;100.00
70027;BME280;57506;50.092;15.804;2024-02-04T09:40:57;99282.13;;;9.54;100.00
70027;BME280;57506;50.092;15.804;2024-02-04T09:43:23;99274.59;;;9.50;100.00
70027;BME280;57506;50.092;15.804;2024-02-04T09:45:49;99282.59;;;9.58;100.00
70027;BME280;57506;50.092;15.804;2024-02-04T09:48:18;99287.50;;;9.54;100.00
70027;BME280;57506;50.092;15.804;2024-02-04T09:50:46;99316.00;;;9.78;100.00
70027;BME280;57506;50.092;15.804;2024-02-04T09:53:14;99294.47;;;9.63;100.00
70027;BME280;57506;50.092;15.804;2024-02-04T09:55:45;99321.72;;;9.75;100.00
70027;BME280;57506;50.092;15.804;2024-02-04T09:58:12;99268.28;;;9.42;100.00
70027;BME280;57506;50.092;15.804;2024-02-04T10:00:39;99316.47;;;9.81;100.00
70027;BME280;57506;50.092;15.804;2024-02-04T10:03:09;99294.28;;;9.65;100.00
70027;BME280;57506;50.092;15.804;2024-02-04T10:05:35;99263.19;;;9.47;100.00
70027;BME280;57506;50.092;15.804;2024-02-04T10:08:01;99287.59;;;9.61;100.00
70027;BME280;57506;50.092;15.804;2024-02-04T10:10:26;99255.13;;;9.47;100.00
70027;BME280;57506;50.092;15.804;2024-02-04T10:12:52;99298.38;;;9.90;100.00
70027;BME280;57506;50.092;15.804;2024-02-04T10:15:18;99297.31;;;9.91;100.00
70027;BME280;57506;50.092;15.804;2024-02-04T10:17:46;99285.16;;;9.95;100.00
70027;BME280;57506;50.092;15.804;2024-02-04T10:20:12;99254.47;;;9.90;100.00
70027;BME280;57506;50.092;15.804;2024-02-04T10:22:38;99288.41;;;10.05;100.00
70027;BME280;57506;50.092;15.804;2024-02-04T10:25:10;99295.06;;;10.09;100.00
70027;BME280;57506;50.092;15.804;2024-02-04T10:27:41;99284.50;;;10.08;100.00
70027;BME280;57506;50.092;15.804;2024-02-04T10:30:09;99290.16;;;10.28;99.96
70027;BME280;57506;50.092;15.804;2024-02-04T10:32:34;99281.47;;;10.47;99.59
70027;BME280;57506;50.092;15.804;2024-02-04T10:35:01;99234.75;;;10.19;96.84
70027;BME280;57506;50.092;15.804;2024-02-04T10:37:27;99216.47;;;9.99;99.21
70027;BME280;57506;50.092;15.804;2024-02-04T10:39:53;99279.66;;;10.33;98.94
70027;BME280;57506;50.092;15.804;2024-02-04T10:42:24;99266.75;;;10.28;100.00
70027;BME280;57506;50.092;15.804;2024-02-04T10:44:52;99268.50;;;10.36;98.88
70027;BME280;57506;50.092;15.804;2024-02-04T10:47:22;99263.69;;;10.31;97.92
70027;BME280;57506;50.092;15.804;2024-02-04T10:49:52;99271.19;;;10.36;96.04
70027;BME280;57506;50.092;15.804;2024-02-04T10:52:22;99261.81;;;10.32;96.44
70027;BME280;57506;50.092;15.804;2024-02-04T10:54:51;99251.59;;;10.27;97.45
70027;BME280;57506;50.092;15.804;2024-02-04T10:57:21;99264.88;;;10.29;97.29
70027;BME280;57506;50.092;15.804;2024-02-04T10:59:48;99246.03;;;10.14;97.26
70027;BME280;57506;50.092;15.804;2024-02-04T11:02:15;99250.22;;;10.16;97.23
70027;BME280;57506;50.092;15.804;2024-02-04T11:04:43;99258.03;;;10.11;98.10
70027;BME280;57506;50.092;15.804;2024-02-04T11:07:10;99243.38;;;9.99;97.36
70027;BME280;57506;50.092;15.804;2024-02-04T11:09:37;99247.72;;;10.15;97.30
70027;BME280;57506;50.092;15.804;2024-02-04T11:12:08;99249.94;;;10.26;97.18
70027;BME280;57506;50.092;15.804;2024-02-04T11:14:36;99222.63;;;10.29;96.08
70027;BME280;57506;50.092;15.804;2024-02-04T11:25:55;99233.47;;;10.57;95.18
70027;BME280;57506;50.092;15.804;2024-02-04T11:28:22;99233.22;;;10.52;94.88
70027;BME280;57506;50.092;15.804;2024-02-04T11:30:48;99212.69;;;10.51;93.49
70027;BME280;57506;50.092;15.804;2024-02-04T11:33:19;99225.91;;;10.67;93.50
70027;BME280;57506;50.092;15.804;2024-02-04T11:35:46;99214.34;;;10.73;93.32
70027;BME280;57506;50.092;15.804;2024-02-04T11:38:11;99211.03;;;10.71;92.23
70027;BME280;57506;50.092;15.804;2024-02-04T11:40:39;99206.97;;;10.82;92.18
70027;BME280;57506;50.092;15.804;2024-02-04T11:43:11;99196.38;;;10.80;90.56
70027;BME280;57506;50.092;15.804;2024-02-04T11:45:41;99157.50;;;10.68;90.61
70027;BME280;57506;50.092;15.804;2024-02-04T11:48:10;99193.38;;;10.97;90.78
70027;BME280;57506;50.092;15.804;2024-02-04T11:50:37;99191.25;;;10.92;89.21
70027;BME280;57506;50.092;15.804;2024-02-04T11:53:11;99188.38;;;10.94;89.96
70027;BME280;57506;50.092;15.804;2024-02-04T11:55:39;99175.47;;;10.89;90.02
70027;BME280;57506;50.092;15.804;2024-02-04T11:58:05;99183.81;;;10.94;90.53
70027;BME280;57506;50.092;15.804;2024-02-04T12:00:33;99157.72;;;10.73;89.70
70027;BME280;57506;50.092;15.804;2024-02-04T12:03:02;99156.56;;;10.82;89.38
70027;BME280;57506;50.092;15.804;2024-02-04T12:05:32;99182.97;;;10.94;90.25
70027;BME280;57506;50.092;15.804;2024-02-04T12:08:05;99180.03;;;10.88;88.78
70027;BME280;57506;50.092;15.804;2024-02-04T12:10:32;99144.50;;;10.78;90.18
70027;BME280;57506;50.092;15.804;2024-02-04T12:13:07;99171.56;;;10.92;90.50
70027;BME280;57506;50.092;15.804;2024-02-04T12:15:36;99177.19;;;10.97;89.05
70027;BME280;57506;50.092;15.804;2024-02-04T12:18:08;99166.78;;;10.87;89.82
70027;BME280;57506;50.092;15.804;2024-02-04T12:20:34;99167.84;;;10.93;89.53
70027;BME280;57506;50.092;15.804;2024-02-04T12:23:02;99138.84;;;10.67;90.15
70027;BME280;57506;50.092;15.804;2024-02-04T12:25:28;99150.06;;;10.70;89.46
70027;BME280;57506;50.092;15.804;2024-02-04T12:27:58;99157.72;;;10.73;91.24
70027;BME280;57506;50.092;15.804;2024-02-04T12:30:23;99148.25;;;10.56;91.31
70027;BME280;57506;50.092;15.804;2024-02-04T12:32:59;99169.78;;;10.49;90.78
70027;BME280;57506;50.092;15.804;2024-02-04T12:35:26;99154.00;;;10.46;91.33
70027;BME280;57506;50.092;15.804;2024-02-04T12:37:53;99154.44;;;10.29;91.93
70027;BME280;57506;50.092;15.804;2024-02-04T12:40:23;99117.91;;;10.20;92.79
70027;BME280;57506;50.092;15.804;2024-02-04T12:42:57;99133.75;;;10.29;93.08
70027;BME280;57506;50.092;15.804;2024-02-04T12:45:23;99155.47;;;10.28;94.49
70027;BME280;57506;50.092;15.804;2024-02-04T12:47:53;99147.78;;;10.25;94.50
70027;BME280;57506;50.092;15.804;2024-02-04T12:50:20;99117.53;;;10.08;94.04
70027;BME280;57506;50.092;15.804;2024-02-04T12:52:50;99139.09;;;10.23;93.99
70027;BME280;57506;50.092;15.804;2024-02-04T12:55:27;99131.38;;;10.20;93.21
70027;BME280;57506;50.092;15.804;2024-02-04T12:58:05;99128.41;;;10.14;92.31
70027;BME280;57506;50.092;15.804;2024-02-04T13:00:36;99140.09;;;10.22;93.03